Time;durP1;ratioP1;P1;durP2;ratioP2;P2;SDS_P1;SDS_P2;PMS_P1;PMS_P2;Temp;Humidity;BMP_temperature;BMP_pressure;BME280_temperature;BME280_humidity;BME280_pressure;Samples;Min_cycle;Max_cycle;Signal;HPM_P1;HPM_P2
2023/09/05 00:00:44;;;;;;;4.75;3.70;;;15.00;99.90;;;;;;5110241;27;20130;-62
2023/09/05 00:03:10;;;;;;;3.95;3.60;;;15.10;99.90;;;;;;5122014;27;20470;-62
2023/09/05 00:05:36;;;;;;;5.72;3.40;;;15.00;99.90;;;;;;5125262;27;20042;-62
2023/09/05 00:08:02;;;;;;;5.50;3.53;;;15.00;99.90;;;;;;5146051;27;20023;-62
2023/09/05 00:10:27;;;;;;;4.40;3.78;;;15.00;99.90;;;;;;5119238;27;20122;-62
2023/09/05 00:12:53;;;;;;;4.03;3.50;;;15.00;99.90;;;;;;5125769;27;20042;-62
2023/09/05 00:15:19;;;;;;;4.53;3.80;;;15.00;99.90;;;;;;5124045;27;20034;-63
2023/09/05 00:17:44;;;;;;;4.13;3.72;;;15.00;99.90;;;;;;5118164;27;20284;-62
2023/09/05 00:20:15;;;;;;;4.35;3.40;;;15.00;99.90;;;;;;5124309;27;20050;-63
2023/09/05 00:22:41;;;;;;;5.18;3.92;;;15.00;99.90;;;;;;5149186;27;20046;-62
2023/09/05 00:25:07;;;;;;;4.55;3.90;;;15.00;99.90;;;;;;5126112;27;20042;-62
2023/09/05 00:27:35;;;;;;;4.15;3.75;;;15.00;99.90;;;;;;5143038;27;20031;-62
2023/09/05 00:30:03;;;;;;;6.20;4.03;;;15.00;99.90;;;;;;5145192;27;20039;-61
2023/09/05 00:32:28;;;;;;;4.75;4.18;;;15.00;99.90;;;;;;5111662;27;20497;-63
2023/09/05 00:34:54;;;;;;;4.50;4.10;;;15.00;99.90;;;;;;5129895;27;20115;-62
2023/09/05 00:37:23;;;;;;;4.07;3.67;;;15.00;99.90;;;;;;5123377;27;20083;-63
2023/09/05 00:39:50;;;;;;;4.88;3.80;;;14.90;99.90;;;;;;5128627;27;20493;-61
2023/09/05 00:42:16;;;;;;;5.38;4.28;;;14.90;99.90;;;;;;5129935;27;20041;-62
2023/09/05 00:44:44;;;;;;;7.53;4.47;;;14.90;99.90;;;;;;5126098;27;20066;-62
2023/09/05 00:47:11;;;;;;;4.55;4.15;;;14.90;99.90;;;;;;5129987;27;20485;-62
2023/09/05 00:49:47;;;;;;;6.38;3.83;;;14.80;99.90;;;;;;5146996;27;20045;-63
2023/09/05 00:52:13;;;;;;;4.75;4.13;;;14.80;99.90;;;;;;5127777;27;20047;-63
2023/09/05 00:54:40;;;;;;;4.72;4.15;;;14.80;99.90;;;;;;5121596;27;20035;-62
2023/09/05 00:57:07;;;;;;;6.35;4.20;;;14.80;99.90;;;;;;5128462;27;20054;-63
2023/09/05 00:59:33;;;;;;;4.88;4.38;;;14.80;99.90;;;;;;5122910;27;20392;-62
2023/09/05 01:01:58;;;;;;;6.80;4.00;;;14.80;99.90;;;;;;5150481;27;20026;-63
2023/09/05 01:04:25;;;;;;;6.07;4.05;;;14.80;99.90;;;;;;5104199;27;20047;-62
2023/09/05 01:07:16;;;;;;;7.72;4.78;;;14.70;99.90;;;;;;5126124;27;20039;-62
2023/09/05 01:09:52;;;;;;;4.25;3.85;;;14.70;99.90;;;;;;5107044;27;20055;-62
2023/09/05 01:12:19;;;;;;;4.72;4.32;;;14.60;99.90;;;;;;5123875;27;20572;-61
2023/09/05 01:14:44;;;;;;;7.50;4.38;;;14.60;99.90;;;;;;5106380;27;20117;-62
2023/09/05 01:17:10;;;;;;;4.68;4.28;;;14.60;99.90;;;;;;5124164;27;20189;-63
2023/09/05 01:19:39;;;;;;;4.65;4.18;;;14.60;99.90;;;;;;5127906;27;20052;-62
2023/09/05 01:22:24;;;;;;;5.50;4.20;;;14.60;99.90;;;;;;5122485;27;20046;-62
2023/09/05 01:24:50;;;;;;;4.40;4.00;;;14.60;99.90;;;;;;5147053;27;20039;-62
2023/09/05 01:27:19;;;;;;;4.82;4.43;;;14.60;99.90;;;;;;5126333;27;20400;-63
2023/09/05 01:29:45;;;;;;;4.47;4.00;;;14.50;99.90;;;;;;5118028;27;20042;-62
2023/09/05 01:32:11;;;;;;;4.82;4.07;;;14.50;99.90;;;;;;5124411;27;20043;-63
2023/09/05 01:34:37;;;;;;;5.03;4.50;;;14.50;99.90;;;;;;5122912;27;20512;-63
2023/09/05 01:37:03;;;;;;;4.35;3.95;;;14.50;99.90;;;;;;5120547;27;20047;-63
2023/09/05 01:39:29;;;;;;;7.43;4.70;;;14.50;99.90;;;;;;5127185;27;20043;-62
2023/09/05 01:41:58;;;;;;;4.72;4.15;;;14.50;99.90;;;;;;5120524;27;20039;-63
2023/09/05 01:44:24;;;;;;;6.45;4.20;;;14.50;99.90;;;;;;5100283;27;20051;-63
2023/09/05 01:46:50;;;;;;;5.65;4.28;;;14.50;99.90;;;;;;5127509;27;20053;-63
2023/09/05 01:49:16;;;;;;;5.93;3.92;;;14.50;99.90;;;;;;5125824;27;20103;-62
2023/09/05 01:51:41;;;;;;;5.15;4.53;;;14.40;99.90;;;;;;5139901;27;20049;-62
2023/09/05 01:54:07;;;;;;;5.22;4.20;;;14.40;99.90;;;;;;5129012;27;20081;-63
2023/09/05 01:56:32;;;;;;;5.85;4.63;;;14.40;99.90;;;;;;5121865;28;20482;-62
2023/09/05 01:58:58;;;;;;;6.55;4.60;;;14.40;99.90;;;;;;5122624;27;20047;-61
2023/09/05 02:01:24;;;;;;;5.20;4.70;;;14.30;99.90;;;;;;5126792;27;20082;-62
2023/09/05 02:03:50;;;;;;;4.43;3.97;;;14.30;99.90;;;;;;5121206;27;20035;-62
2023/09/05 02:06:16;;;;;;;4.70;4.25;;;14.30;99.90;;;;;;5139883;27;20095;-62
2023/09/05 02:08:42;;;;;;;4.88;4.40;;;14.30;99.90;;;;;;5125029;27;20031;-62
2023/09/05 02:11:11;;;;;;;5.80;4.85;;;14.30;99.90;;;;;;5145315;27;20042;-62
2023/09/05 02:13:36;;;;;;;5.85;4.80;;;14.30;99.90;;;;;;5123173;27;20475;-62
2023/09/05 02:16:02;;;;;;;5.43;4.85;;;14.30;99.90;;;;;;5125778;27;20038;-62
2023/09/05 02:18:28;;;;;;;5.20;4.50;;;14.20;99.90;;;;;;5116509;27;20051;-62
2023/09/05 02:21:01;;;;;;;4.82;4.43;;;14.20;99.90;;;;;;5117165;27;20055;-62
2023/09/05 02:23:27;;;;;;;6.63;4.65;;;14.20;99.90;;;;;;5120072;27;20046;-62
2023/09/05 02:26:01;;;;;;;5.78;4.60;;;14.20;99.90;;;;;;5116542;27;20050;-63
2023/09/05 02:28:28;;;;;;;5.97;4.30;;;14.20;99.90;;;;;;5117558;27;20427;-62
2023/09/05 02:30:54;;;;;;;7.13;4.63;;;14.20;99.90;;;;;;5134955;27;20039;-62
2023/09/05 02:33:20;;;;;;;5.75;4.88;;;14.10;99.90;;;;;;5120200;27;20042;-63
2023/09/05 02:35:46;;;;;;;4.97;4.40;;;14.20;99.90;;;;;;5116515;27;20065;-62
2023/09/05 02:38:13;;;;;;;5.60;4.65;;;14.10;99.90;;;;;;5124695;27;20039;-63
2023/09/05 02:40:46;;;;;;;5.57;4.85;;;14.10;99.90;;;;;;5154167;27;20426;-62
2023/09/05 02:43:12;;;;;;;6.53;4.93;;;14.10;99.90;;;;;;5155167;27;20043;-62
2023/09/05 02:45:38;;;;;;;7.93;4.63;;;14.10;99.90;;;;;;5123799;27;20046;-63
2023/09/05 02:48:05;;;;;;;6.18;5.18;;;14.10;99.90;;;;;;5116020;27;20031;-61
2023/09/05 02:50:31;;;;;;;6.00;5.40;;;14.10;99.90;;;;;;5108745;27;20035;-62
2023/09/05 02:52:56;;;;;;;6.50;5.82;;;14.20;99.90;;;;;;5134717;27;20043;-62
2023/09/05 02:55:22;;;;;;;8.02;5.88;;;14.20;99.90;;;;;;5116003;27;20047;-62
2023/09/05 02:57:48;;;;;;;7.90;6.18;;;14.20;99.90;;;;;;5116263;27;20482;-63
2023/09/05 03:00:14;;;;;;;6.28;5.68;;;14.20;99.90;;;;;;5119515;27;20465;-62
2023/09/05 03:02:40;;;;;;;7.93;6.25;;;14.20;99.90;;;;;;5136380;27;20370;-62
2023/09/05 03:05:06;;;;;;;7.63;6.00;;;14.30;99.90;;;;;;5153441;27;20042;-62
2023/09/05 03:07:32;;;;;;;9.05;6.78;;;14.30;99.90;;;;;;5115854;27;20031;-62
2023/09/05 03:09:58;;;;;;;6.80;6.10;;;14.30;99.90;;;;;;5118008;27;20043;-62
2023/09/05 03:12:24;;;;;;;7.15;6.40;;;14.30;99.90;;;;;;5131982;27;20129;-63
2023/09/05 03:14:49;;;;;;;6.30;5.70;;;14.30;99.90;;;;;;5116799;27;20050;-62
2023/09/05 03:17:15;;;;;;;6.82;6.22;;;14.30;99.90;;;;;;5130608;27;20046;-62
2023/09/05 03:19:41;;;;;;;6.78;5.93;;;14.30;99.90;;;;;;5129903;27;20413;-62
2023/09/05 03:22:07;;;;;;;6.72;5.75;;;14.30;99.90;;;;;;5120380;27;20059;-63
2023/09/05 03:24:34;;;;;;;6.72;5.72;;;14.30;99.90;;;;;;5123901;27;20095;-63
2023/09/05 03:27:00;;;;;;;6.78;6.05;;;14.20;99.90;;;;;;5117809;27;20091;-62
2023/09/05 03:29:25;;;;;;;6.97;6.30;;;14.20;99.90;;;;;;5117408;27;20035;-62
2023/09/05 03:31:52;;;;;;;8.50;6.68;;;14.20;99.90;;;;;;5133708;27;20512;-62
2023/09/05 03:34:18;;;;;;;7.18;6.47;;;14.30;99.90;;;;;;5117719;27;20042;-62
2023/09/05 03:36:44;;;;;;;7.80;7.00;;;14.30;99.90;;;;;;5114777;27;20050;-62
2023/09/05 03:39:09;;;;;;;7.03;6.40;;;14.30;99.90;;;;;;5122137;27;20038;-62
2023/09/05 03:41:35;;;;;;;9.40;7.05;;;14.30;99.90;;;;;;5114935;27;20038;-62
2023/09/05 03:44:01;;;;;;;8.40;7.15;;;14.30;99.90;;;;;;5146377;27;20477;-63
2023/09/05 03:46:26;;;;;;;8.50;6.75;;;14.40;99.90;;;;;;5134462;27;20039;-62
2023/09/05 03:48:53;;;;;;;7.55;6.70;;;14.40;99.90;;;;;;5153406;27;20411;-63
2023/09/05 03:51:19;;;;;;;7.63;6.65;;;14.40;99.90;;;;;;5118203;27;20034;-62
2023/09/05 03:53:45;;;;;;;7.60;6.82;;;14.40;99.90;;;;;;5117970;27;20489;-62
2023/09/05 03:56:10;;;;;;;9.90;6.78;;;14.40;99.90;;;;;;5115056;27;20122;-62
2023/09/05 03:58:37;;;;;;;7.88;6.60;;;14.40;99.90;;;;;;5115260;27;20374;-62
2023/09/05 04:01:04;;;;;;;7.80;7.00;;;14.40;99.90;;;;;;5129811;27;20046;-62
2023/09/05 04:03:32;;;;;;;7.18;6.50;;;14.40;99.90;;;;;;5132344;27;20098;-62
2023/09/05 04:06:01;;;;;;;7.85;7.10;;;14.40;99.90;;;;;;5119968;27;20058;-62
2023/09/05 04:08:27;;;;;;;7.82;7.13;;;14.40;99.90;;;;;;5119815;27;20046;-62
2023/09/05 04:10:57;;;;;;;8.23;6.78;;;14.40;99.90;;;;;;5097952;27;20402;-63
2023/09/05 04:13:23;;;;;;;10.30;6.97;;;14.40;99.90;;;;;;5127889;27;20121;-62
2023/09/05 04:15:48;;;;;;;7.60;6.88;;;14.40;99.90;;;;;;5127730;27;20463;-63
2023/09/05 04:18:14;;;;;;;8.75;7.03;;;14.40;99.90;;;;;;5153496;27;20054;-63
2023/09/05 04:20:39;;;;;;;9.60;7.38;;;14.40;99.90;;;;;;5152575;27;20031;-63
2023/09/05 04:23:05;;;;;;;8.15;7.10;;;14.40;99.90;;;;;;5134891;27;20043;-62
2023/09/05 04:25:32;;;;;;;9.38;7.38;;;14.40;99.90;;;;;;5138811;27;20434;-62
2023/09/05 04:27:58;;;;;;;7.60;6.90;;;14.40;99.90;;;;;;5114243;27;20401;-62
2023/09/05 04:30:23;;;;;;;8.20;7.40;;;14.40;99.90;;;;;;5136869;27;20028;-62
2023/09/05 04:32:49;;;;;;;8.13;7.03;;;14.40;99.90;;;;;;5132337;27;20065;-62
2023/09/05 04:35:15;;;;;;;8.82;7.00;;;14.40;99.90;;;;;;5119468;27;20035;-63
2023/09/05 04:37:40;;;;;;;8.60;7.15;;;14.40;99.90;;;;;;5148415;27;20042;-62
2023/09/05 04:40:07;;;;;;;7.38;6.68;;;14.40;99.90;;;;;;5114094;27;20138;-63
2023/09/05 04:42:33;;;;;;;7.70;6.90;;;14.40;99.90;;;;;;5114863;27;20435;-62
2023/09/05 04:44:59;;;;;;;9.00;7.30;;;14.40;99.90;;;;;;5114084;27;20088;-62
2023/09/05 04:47:29;;;;;;;10.10;6.95;;;14.40;99.90;;;;;;5134976;27;20084;-62
2023/09/05 04:49:59;;;;;;;8.40;7.05;;;14.40;99.90;;;;;;5116735;27;20035;-62
2023/09/05 04:52:26;;;;;;;10.15;6.65;;;14.40;99.90;;;;;;5144848;27;20096;-61
2023/09/05 04:54:54;;;;;;;10.20;7.30;;;14.40;99.90;;;;;;5121672;27;20042;-63
2023/09/05 04:57:19;;;;;;;8.45;7.00;;;14.40;99.90;;;;;;5134036;27;20035;-61
2023/09/05 04:59:49;;;;;;;9.80;7.40;;;14.40;99.90;;;;;;5133307;27;20039;-64
2023/09/05 05:02:15;;;;;;;8.57;7.38;;;14.40;99.90;;;;;;5113536;27;20037;-64
2023/09/05 05:04:42;;;;;;;11.52;7.55;;;14.30;99.90;;;;;;5096914;27;20070;-62
2023/09/05 05:07:08;;;;;;;9.88;7.40;;;14.30;99.90;;;;;;5106441;27;20039;-63
2023/09/05 05:09:34;;;;;;;9.48;7.75;;;14.40;99.90;;;;;;5117724;27;20088;-63
2023/09/05 05:12:00;;;;;;;8.75;7.95;;;14.40;99.90;;;;;;5151800;27;20477;-63
2023/09/05 05:14:26;;;;;;;8.43;7.30;;;14.40;99.90;;;;;;5127349;27;20480;-63
2023/09/05 05:16:53;;;;;;;7.97;7.18;;;14.40;99.90;;;;;;5113155;27;20067;-65
2023/09/05 05:19:20;;;;;;;8.70;7.78;;;14.40;99.90;;;;;;5113208;27;20058;-63
2023/09/05 05:21:50;;;;;;;9.30;7.47;;;14.50;99.90;;;;;;5098600;27;20406;-66
2023/09/05 05:24:18;;;;;;;8.25;7.35;;;14.50;99.90;;;;;;5103925;27;20035;-66
2023/09/05 05:26:53;;;;;;;8.75;7.85;;;14.60;99.90;;;;;;5125611;27;20066;-65
2023/09/05 05:29:31;;;;;;;9.15;7.05;;;14.60;99.90;;;;;;5084853;28;20044;-64
2023/09/05 05:32:00;;;;;;;7.90;7.10;;;14.70;99.90;;;;;;5106502;28;20059;-65
2023/09/05 05:34:31;;;;;;;9.35;7.05;;;14.70;99.90;;;;;;5102248;28;20056;-65
2023/09/05 05:36:57;;;;;;;8.60;7.40;;;14.80;99.90;;;;;;5085561;28;20184;-65
2023/09/05 05:39:24;;;;;;;8.52;7.30;;;14.80;99.90;;;;;;5065220;28;20062;-64
2023/09/05 05:41:49;;;;;;;9.38;7.45;;;14.90;99.90;;;;;;5065185;28;20156;-64
2023/09/05 05:44:15;;;;;;;8.13;6.80;;;14.90;99.90;;;;;;5095568;28;20486;-64
2023/09/05 05:46:41;;;;;;;8.90;7.30;;;14.90;99.90;;;;;;5082885;28;20047;-64
2023/09/05 05:49:08;;;;;;;9.27;7.57;;;14.90;99.90;;;;;;5065525;28;20044;-64
2023/09/05 05:51:34;;;;;;;7.90;7.10;;;15.00;99.90;;;;;;5083032;28;20087;-65
2023/09/05 05:54:00;;;;;;;8.52;7.60;;;15.00;99.90;;;;;;5081882;28;20047;-65
2023/09/05 05:56:25;;;;;;;8.40;7.43;;;15.00;99.90;;;;;;5083583;28;20530;-64
2023/09/05 05:58:51;;;;;;;8.23;7.38;;;15.10;99.90;;;;;;5101267;28;20032;-64
2023/09/05 06:01:20;;;;;;;10.18;7.50;;;15.10;99.90;;;;;;5059430;28;20142;-63
2023/09/05 06:03:46;;;;;;;8.48;7.57;;;15.20;99.90;;;;;;5085559;28;20047;-64
2023/09/05 06:06:12;;;;;;;8.07;7.03;;;15.30;99.90;;;;;;5100411;27;20049;-65
2023/09/05 06:08:39;;;;;;;8.98;7.07;;;15.30;99.90;;;;;;5142242;27;20091;-64
2023/09/05 06:11:04;;;;;;;8.18;6.78;;;15.40;99.90;;;;;;5132854;27;20114;-64
2023/09/05 06:13:30;;;;;;;7.65;6.85;;;15.50;99.90;;;;;;5120054;27;20114;-63
2023/09/05 06:15:56;;;;;;;9.05;6.95;;;15.60;99.90;;;;;;5131101;27;20111;-65
2023/09/05 06:18:23;;;;;;;7.80;7.00;;;15.70;99.90;;;;;;5147065;27;21471;-64
2023/09/05 06:20:48;;;;;;;7.70;7.00;;;15.70;99.90;;;;;;5133131;27;20042;-63
2023/09/05 06:23:14;;;;;;;9.80;7.07;;;15.80;99.90;;;;;;5132749;27;20170;-63
2023/09/05 06:25:40;;;;;;;8.55;7.13;;;16.00;99.90;;;;;;5151471;27;20027;-64
2023/09/05 06:28:06;;;;;;;8.45;6.75;;;16.10;99.90;;;;;;5124299;27;20035;-64
2023/09/05 06:30:31;;;;;;;7.65;6.82;;;16.20;99.90;;;;;;5115495;27;20085;-64
2023/09/05 06:32:57;;;;;;;8.05;6.95;;;16.30;99.90;;;;;;5151525;27;20032;-65
2023/09/05 06:35:22;;;;;;;7.93;6.30;;;16.40;99.90;;;;;;5130649;27;20434;-65
2023/09/05 06:37:55;;;;;;;7.55;6.70;;;16.60;99.90;;;;;;5118055;27;20043;-64
2023/09/05 06:40:23;;;;;;;7.45;6.65;;;16.70;99.90;;;;;;5112030;27;20374;-64
2023/09/05 06:42:50;;;;;;;11.32;6.75;;;16.90;99.90;;;;;;5131157;27;20035;-66
2023/09/05 06:45:15;;;;;;;8.32;6.70;;;17.10;99.90;;;;;;5122923;27;20082;-65
2023/09/05 06:47:41;;;;;;;6.60;5.75;;;17.20;99.90;;;;;;5112132;27;20071;-65
2023/09/05 06:50:07;;;;;;;8.90;5.82;;;17.40;99.90;;;;;;5112571;28;20091;-63
2023/09/05 06:52:33;;;;;;;6.03;5.22;;;17.60;99.90;;;;;;5131052;27;20058;-65
2023/09/05 06:54:59;;;;;;;7.10;5.25;;;17.80;99.90;;;;;;5134947;27;20039;-65
2023/09/05 06:57:25;;;;;;;6.15;5.05;;;18.00;99.90;;;;;;5151268;27;20031;-64
2023/09/05 06:59:51;;;;;;;5.38;4.70;;;18.10;99.90;;;;;;5136506;27;20099;-64
2023/09/05 07:02:16;;;;;;;5.82;4.80;;;18.30;99.90;;;;;;5136362;27;20118;-65
2023/09/05 07:04:42;;;;;;;6.15;4.68;;;18.50;99.90;;;;;;5142819;27;20031;-65
2023/09/05 07:07:08;;;;;;;9.18;4.13;;;18.70;99.90;;;;;;5117900;27;20046;-64
2023/09/05 07:09:34;;;;;;;4.57;4.03;;;18.90;99.90;;;;;;5115746;27;20130;-64
2023/09/05 07:12:00;;;;;;;5.57;4.20;;;19.10;99.90;;;;;;5134243;27;20031;-65
2023/09/05 07:14:26;;;;;;;5.35;4.15;;;19.20;99.90;;;;;;5115534;27;20047;-65
2023/09/05 07:16:52;;;;;;;8.63;3.60;;;19.40;99.90;;;;;;5139266;27;20084;-64
2023/09/05 07:19:18;;;;;;;4.57;3.83;;;19.60;99.90;;;;;;5121640;27;20528;-64
2023/09/05 07:21:44;;;;;;;4.95;3.60;;;19.80;99.90;;;;;;5098090;27;20119;-64
2023/09/05 07:24:14;;;;;;;4.00;3.55;;;19.90;99.90;;;;;;5115805;27;20041;-65
2023/09/05 07:26:43;;;;;;;5.75;3.85;;;20.00;99.90;;;;;;5100042;27;20140;-64
2023/09/05 07:29:10;;;;;;;5.80;3.85;;;20.10;99.90;;;;;;5115512;27;20047;-64
2023/09/05 07:31:37;;;;;;;5.97;3.67;;;20.20;99.90;;;;;;5115317;27;20061;-65
2023/09/05 07:34:03;;;;;;;3.80;3.22;;;20.30;99.90;;;;;;5115473;27;20047;-65
2023/09/05 07:36:31;;;;;;;5.95;3.30;;;20.40;99.90;;;;;;5101233;27;20415;-65
2023/09/05 07:38:56;;;;;;;4.43;3.15;;;20.50;99.90;;;;;;5136060;27;20053;-65
2023/09/05 07:41:22;;;;;;;4.65;3.00;;;20.70;99.90;;;;;;5135952;27;20118;-65
2023/09/05 07:43:48;;;;;;;4.25;2.80;;;20.80;99.90;;;;;;5114189;27;20086;-65
2023/09/05 07:46:14;;;;;;;4.18;2.80;;;20.90;99.90;;;;;;5115282;27;20066;-66
2023/09/05 07:48:39;;;;;;;5.53;2.50;;;21.10;99.90;;;;;;5119279;27;20386;-64
2023/09/05 07:51:07;;;;;;;3.53;2.33;;;21.30;99.90;;;;;;5115214;27;20043;-64
2023/09/05 07:53:35;;;;;;;3.88;3.08;;;21.50;99.90;;;;;;5122552;27;20097;-65
2023/09/05 07:56:02;;;;;;;4.68;2.53;;;21.70;99.90;;;;;;5114926;27;20096;-64
2023/09/05 07:58:27;;;;;;;3.28;2.40;;;21.80;99.90;;;;;;5109787;27;20058;-64
2023/09/05 08:00:54;;;;;;;6.45;2.50;;;21.90;99.90;;;;;;5129017;27;22079;-65
2023/09/05 08:03:20;;;;;;;3.03;2.63;;;22.10;99.90;;;;;;5117338;27;20091;-64
2023/09/05 08:05:48;;;;;;;2.55;2.35;;;22.20;99.90;;;;;;5115882;27;20042;-64
2023/09/05 08:08:17;;;;;;;5.30;2.30;;;22.30;99.90;;;;;;5114852;27;20043;-63
2023/09/05 08:10:43;;;;;;;4.28;2.60;;;22.50;99.90;;;;;;5115229;27;20043;-66
2023/09/05 08:13:13;;;;;;;3.20;2.53;;;22.60;99.90;;;;;;5138555;27;20103;-64
2023/09/05 08:15:41;;;;;;;2.78;2.22;;;22.70;99.90;;;;;;5135154;27;20422;-64
2023/09/05 08:18:07;;;;;;;3.30;2.25;;;22.80;99.90;;;;;;5115593;27;20043;-65
2023/09/05 08:20:33;;;;;;;3.42;2.00;;;23.00;99.90;;;;;;5130112;27;20050;-64
2023/09/05 08:23:01;;;;;;;4.35;2.40;;;23.10;99.90;;;;;;5120093;27;20122;-65
2023/09/05 08:25:26;;;;;;;4.43;2.20;;;23.20;99.90;;;;;;5120958;27;20086;-64
2023/09/05 08:27:53;;;;;;;2.70;2.13;;;23.40;99.90;;;;;;5120892;27;20458;-64
2023/09/05 08:30:23;;;;;;;4.65;2.10;;;23.50;99.90;;;;;;5121663;27;20047;-64
2023/09/05 08:32:50;;;;;;;3.53;1.90;;;23.60;99.90;;;;;;5147681;27;20485;-65
2023/09/05 08:35:15;;;;;;;2.85;2.08;;;23.80;99.90;;;;;;5114960;27;20181;-65
2023/09/05 08:37:41;;;;;;;3.15;2.22;;;23.90;99.90;;;;;;5113801;27;20042;-64
2023/09/05 08:40:08;;;;;;;3.70;1.90;;;24.00;99.90;;;;;;5141617;27;20121;-64
2023/09/05 08:42:50;;;;;;;2.83;1.67;;;24.20;99.90;;;;;;5134324;27;20539;-65
2023/09/05 08:45:24;;;;;;;2.28;1.90;;;24.30;99.90;;;;;;5110827;27;20031;-65
2023/09/05 08:47:54;;;;;;;3.80;1.88;;;24.50;99.90;;;;;;5114791;27;20043;-66
2023/09/05 08:50:19;;;;;;;3.28;1.63;;;24.70;99.90;;;;;;5122796;27;20035;-65
2023/09/05 08:52:46;;;;;;;2.00;1.63;;;25.00;99.90;;;;;;5116357;27;20099;-65
2023/09/05 08:55:13;;;;;;;3.72;1.80;;;25.20;99.90;;;;;;5131776;27;20509;-64
2023/09/05 08:57:40;;;;;;;2.80;1.60;;;25.30;99.90;;;;;;5120694;27;20132;-65
2023/09/05 09:00:07;;;;;;;2.33;1.70;;;25.50;99.90;;;;;;5131444;27;20450;-65
2023/09/05 09:02:35;;;;;;;3.05;1.83;;;25.60;99.90;;;;;;5130184;27;20066;-65
2023/09/05 09:05:01;;;;;;;1.90;1.67;;;25.70;99.90;;;;;;5131432;27;20030;-65
2023/09/05 09:07:27;;;;;;;2.92;1.63;;;25.80;99.90;;;;;;5137639;27;20437;-65
2023/09/05 09:09:57;;;;;;;1.60;1.33;;;25.80;99.90;;;;;;5132344;27;20493;-64
2023/09/05 09:12:30;;;;;;;2.95;2.05;;;25.90;99.60;;;;;;5119232;27;20066;-65
2023/09/05 09:15:09;;;;;;;4.40;1.65;;;26.00;99.30;;;;;;5133228;27;20042;-65
2023/09/05 09:17:55;;;;;;;4.35;1.60;;;26.10;99.30;;;;;;5112701;27;20093;-65
2023/09/05 09:20:23;;;;;;;2.45;1.58;;;26.20;98.70;;;;;;5111936;27;20047;-65
2023/09/05 09:22:52;;;;;;;2.90;1.45;;;26.30;98.60;;;;;;5119649;27;20623;-65
2023/09/05 09:25:21;;;;;;;2.70;1.50;;;26.50;98.10;;;;;;5116972;27;20106;-64
2023/09/05 09:27:53;;;;;;;2.05;1.60;;;26.70;98.70;;;;;;5134022;27;20043;-64
2023/09/05 09:30:27;;;;;;;2.45;1.50;;;26.80;97.30;;;;;;5131864;27;20043;-65
2023/09/05 09:32:54;;;;;;;1.45;1.23;;;27.00;96.70;;;;;;5116703;27;20043;-66
2023/09/05 09:35:21;;;;;;;1.40;1.30;;;27.10;94.70;;;;;;5119311;27;20039;-63
2023/09/05 09:37:47;;;;;;;2.22;1.65;;;27.20;94.70;;;;;;5102145;27;20407;-64
2023/09/05 09:40:16;;;;;;;7.10;1.75;;;27.20;93.40;;;;;;5112936;27;20042;-64
2023/09/05 09:42:46;;;;;;;1.85;1.30;;;27.30;93.80;;;;;;5135323;27;20405;-64
2023/09/05 09:45:11;;;;;;;1.35;1.25;;;27.50;93.90;;;;;;5125151;27;20167;-63
2023/09/05 09:47:46;;;;;;;1.80;1.42;;;27.50;92.60;;;;;;5120411;27;20122;-64
2023/09/05 09:50:12;;;;;;;1.88;1.48;;;27.60;91.80;;;;;;5112853;27;20037;-63
2023/09/05 09:52:43;;;;;;;2.55;1.17;;;27.70;91.60;;;;;;5130818;27;20554;-65
2023/09/05 09:55:11;;;;;;;1.55;1.45;;;27.90;91.30;;;;;;5116173;28;20390;-64
2023/09/05 09:57:45;;;;;;;3.70;1.50;;;27.80;91.00;;;;;;5126315;27;20039;-64
2023/09/05 10:00:18;;;;;;;1.98;1.50;;;27.90;90.50;;;;;;5115001;27;20023;-64
2023/09/05 10:02:45;;;;;;;1.70;1.17;;;27.90;89.10;;;;;;5132895;27;20122;-64
2023/09/05 10:05:12;;;;;;;1.60;1.35;;;28.00;90.40;;;;;;5133000;27;20038;-65
2023/09/05 10:07:38;;;;;;;1.33;1.23;;;28.10;90.10;;;;;;5151052;27;20073;-65
2023/09/05 10:10:05;;;;;;;1.95;1.60;;;28.30;90.50;;;;;;5126375;27;20457;-66
2023/09/05 10:12:31;;;;;;;2.60;1.52;;;28.30;90.00;;;;;;5123598;27;20038;-64
2023/09/05 10:14:58;;;;;;;2.72;1.90;;;28.40;90.70;;;;;;5132956;27;20122;-65
2023/09/05 10:17:26;;;;;;;2.88;1.20;;;28.50;90.30;;;;;;5131287;27;20080;-64
2023/09/05 10:19:54;;;;;;;4.82;1.40;;;28.60;89.10;;;;;;5129409;27;20107;-64
2023/09/05 10:22:21;;;;;;;1.67;1.35;;;28.70;90.70;;;;;;5129639;27;20077;-63
2023/09/05 10:24:47;;;;;;;2.67;1.45;;;28.90;90.50;;;;;;5112198;27;20043;-64
2023/09/05 10:27:13;;;;;;;2.55;1.30;;;29.10;90.30;;;;;;5112170;27;20057;-65
2023/09/05 10:29:44;;;;;;;2.67;1.55;;;29.20;89.00;;;;;;5116821;27;20039;-65
2023/09/05 10:32:19;;;;;;;3.90;1.58;;;29.40;90.00;;;;;;5127759;27;20035;-66
2023/09/05 10:34:48;;;;;;;1.77;1.60;;;29.60;89.70;;;;;;5136654;27;20050;-66
2023/09/05 10:37:21;;;;;;;1.33;1.23;;;29.70;89.60;;;;;;5131570;27;20485;-65
2023/09/05 10:39:48;;;;;;;3.72;1.55;;;29.80;86.10;;;;;;5117491;27;20390;-64
2023/09/05 10:42:15;;;;;;;1.35;1.23;;;29.80;85.80;;;;;;5135644;27;20091;-64
2023/09/05 10:44:47;;;;;;;2.10;1.48;;;29.90;84.70;;;;;;5126902;27;20043;-66
2023/09/05 10:47:29;;;;;;;;;;;29.90;82.50;;;;;;5122449;27;20030;-64
2023/09/05 10:49:58;;;;;;;;;;;29.80;83.90;;;;;;5116521;27;19915;-64
2023/09/05 10:52:27;;;;;;;3.00;1.40;;;29.70;85.00;;;;;;5132775;27;19969;-65
2023/09/05 10:54:53;;;;;;;1.30;1.20;;;29.90;83.60;;;;;;5115521;27;20043;-64
2023/09/05 10:57:38;;;;;;;3.00;1.30;;;30.00;84.00;;;;;;5139026;27;20039;-64
2023/09/05 11:00:26;;;;;;;1.40;1.13;;;30.10;83.40;;;;;;5115929;27;20493;-64
2023/09/05 11:02:54;;;;;;;3.40;1.63;;;30.40;87.10;;;;;;5115451;27;20039;-64
2023/09/05 11:05:20;;;;;;;1.63;1.20;;;30.50;83.70;;;;;;5115536;27;20035;-64
2023/09/05 11:07:50;;;;;;;3.10;1.20;;;30.50;83.40;;;;;;5139029;27;20082;-63
2023/09/05 11:10:38;;;;;;;1.75;1.20;;;30.40;82.60;;;;;;5134044;27;20031;-63
2023/09/05 11:13:14;;;;;;;1.92;1.08;;;30.50;82.30;;;;;;5133798;27;20050;-65
2023/09/05 11:15:46;;;;;;;2.25;1.08;;;30.70;82.90;;;;;;5107414;27;20054;-64
2023/09/05 11:18:14;;;;;;;2.65;1.30;;;30.80;82.40;;;;;;5120898;27;22104;-64
2023/09/05 11:20:42;;;;;;;2.65;1.30;;;30.70;80.60;;;;;;5130586;27;20047;-65
2023/09/05 11:23:20;;;;;;;2.50;1.30;;;30.70;80.60;;;;;;5118359;27;20119;-64
2023/09/05 11:25:54;;;;;;;1.40;1.17;;;30.50;80.60;;;;;;5135726;27;20035;-63
2023/09/05 11:28:24;;;;;;;2.30;1.40;;;30.50;80.90;;;;;;5145194;27;20114;-63
2023/09/05 11:30:56;;;;;;;2.65;1.30;;;30.50;80.20;;;;;;5117861;27;20034;-64
2023/09/05 11:33:23;;;;;;;2.42;1.40;;;30.50;80.80;;;;;;5102351;27;20462;-63
2023/09/05 11:35:49;;;;;;;2.00;1.40;;;30.60;81.40;;;;;;5114278;27;20055;-65
2023/09/05 11:38:22;;;;;;;3.17;1.20;;;30.70;80.90;;;;;;5120052;27;20046;-64
2023/09/05 11:40:53;;;;;;;1.83;1.20;;;30.70;80.30;;;;;;5135240;27;20082;-64
2023/09/05 11:43:18;;;;;;;2.65;1.20;;;30.50;80.50;;;;;;5110730;27;20051;-64
2023/09/05 11:45:47;;;;;;;3.08;1.20;;;30.60;80.90;;;;;;5117370;27;20129;-64
2023/09/05 11:48:16;;;;;;;2.67;1.02;;;30.50;79.80;;;;;;5135472;27;20027;-64
2023/09/05 11:50:44;;;;;;;2.67;1.20;;;30.50;79.40;;;;;;5128050;27;20074;-64
2023/09/05 11:53:13;;;;;;;1.70;1.08;;;30.50;78.50;;;;;;5141326;27;20088;-63
2023/09/05 11:55:40;;;;;;;4.68;1.20;;;30.30;78.40;;;;;;5115042;27;20494;-64
2023/09/05 11:58:06;;;;;;;1.50;1.20;;;30.10;77.30;;;;;;5114408;27;20039;-64
2023/09/05 12:00:36;;;;;;;1.55;1.20;;;29.90;77.30;;;;;;5117683;27;20049;-64
2023/09/05 12:03:02;;;;;;;1.95;1.10;;;29.90;78.70;;;;;;5115075;27;20039;-65
2023/09/05 12:05:32;;;;;;;1.50;1.40;;;29.80;78.70;;;;;;5129260;27;20031;-66
2023/09/05 12:07:57;;;;;;;4.53;1.45;;;29.70;79.70;;;;;;5128720;27;20039;-64
2023/09/05 12:10:26;;;;;;;2.72;1.20;;;29.60;80.40;;;;;;5130931;27;20045;-64
2023/09/05 12:13:04;;;;;;;2.58;1.30;;;29.60;80.70;;;;;;5115252;27;20041;-64
2023/09/05 12:15:34;;;;;;;1.38;1.20;;;29.50;81.40;;;;;;5151807;27;20091;-63
2023/09/05 12:18:03;;;;;;;2.00;1.45;;;29.40;80.20;;;;;;5130741;27;20048;-64
2023/09/05 12:20:33;;;;;;;1.23;1.00;;;29.20;81.10;;;;;;5133933;27;20045;-66
2023/09/05 12:22:59;;;;;;;1.60;1.10;;;29.10;80.90;;;;;;5116010;27;20386;-65
2023/09/05 12:25:28;;;;;;;4.22;1.30;;;29.10;82.40;;;;;;5133126;27;20077;-64
2023/09/05 12:27:55;;;;;;;3.42;1.30;;;29.00;82.60;;;;;;5114320;27;20035;-64
2023/09/05 12:30:26;;;;;;;3.10;1.25;;;29.00;83.20;;;;;;5114272;27;20038;-65
2023/09/05 12:32:56;;;;;;;;;;;28.90;82.90;;;;;;5126678;27;20050;-65
2023/09/05 12:35:22;;;;;;;2.17;1.20;;;28.80;84.90;;;;;;5146580;27;20150;-63
2023/09/05 12:37:48;;;;;;;2.75;1.60;;;28.70;83.70;;;;;;5134945;27;20039;-64
2023/09/05 12:40:15;;;;;;;2.78;1.35;;;28.70;84.70;;;;;;5134733;27;20035;-64
2023/09/05 12:42:44;;;;;;;1.83;1.60;;;28.70;85.40;;;;;;5148090;27;20047;-64
2023/09/05 12:45:13;;;;;;;2.58;1.25;;;28.60;85.20;;;;;;5108506;27;20512;-64
2023/09/05 12:47:40;;;;;;;2.33;1.30;;;28.50;86.40;;;;;;5134705;27;20038;-64
2023/09/05 12:50:12;;;;;;;4.22;1.40;;;28.40;85.90;;;;;;5134275;27;20042;-65